Time;durP1;ratioP1;P1;durP2;ratioP2;P2;SDS_P1;SDS_P2;PMS_P1;PMS_P2;Temp;Humidity;BMP_temperature;BMP_pressure;BME280_temperature;BME280_humidity;BME280_pressure;Samples;Min_cycle;Max_cycle;Signal;HPM_P1;HPM_P2
2022/08/24 00:01:40;;;;;;;3.80;1.35;;;;;;;28.30;41.95;101430.47;5014372;28;20029;-63
2022/08/24 00:04:05;;;;;;;1.13;0.95;;;;;;;28.27;41.62;101425.41;5015650;28;20109;-63
2022/08/24 00:06:31;;;;;;;1.95;0.90;;;;;;;28.24;42.41;101423.13;5014263;28;20053;-63
2022/08/24 00:08:57;;;;;;;2.75;0.80;;;;;;;28.20;42.48;101430.16;5014544;28;20030;-63
2022/08/24 00:11:23;;;;;;;1.75;1.05;;;;;;;28.17;41.92;101425.09;4998329;28;20460;-63
2022/08/24 00:13:49;;;;;;;4.18;1.15;;;;;;;28.14;42.60;101436.59;5014454;28;20048;-63
2022/08/24 00:16:15;;;;;;;2.67;1.05;;;;;;;28.13;42.81;101434.91;5014348;28;20029;-63
2022/08/24 00:18:40;;;;;;;2.58;0.90;;;;;;;28.07;42.78;101427.56;5014264;28;20032;-63
2022/08/24 00:21:07;;;;;;;1.75;0.90;;;;;;;28.11;42.98;101439.78;5015182;28;20434;-63
2022/08/24 00:23:33;;;;;;;3.85;1.00;;;;;;;28.09;43.01;101433.69;5014049;28;20492;-63
2022/08/24 00:25:58;;;;;;;4.13;1.38;;;;;;;28.07;42.44;101433.06;5014516;28;20038;-63
2022/08/24 00:28:23;;;;;;;2.78;1.08;;;;;;;28.05;42.21;101432.47;5009607;28;20434;-63
2022/08/24 00:30:49;;;;;;;1.38;1.00;;;;;;;28.03;42.51;101440.09;5010762;28;20037;-63
2022/08/24 00:33:15;;;;;;;2.65;1.30;;;;;;;27.98;42.47;101431.66;5013900;28;20076;-63
2022/08/24 00:35:40;;;;;;;1.73;0.93;;;;;;;27.97;43.09;101434.66;5015048;28;20025;-63
2022/08/24 00:38:05;;;;;;;2.10;1.30;;;;;;;27.93;42.15;101441.69;5013884;28;20431;-63
2022/08/24 00:40:34;;;;;;;6.88;0.90;;;;;;;27.89;43.11;101433.03;5014971;28;20030;-63
2022/08/24 00:43:03;;;;;;;6.72;1.30;;;;;;;27.85;42.75;101431.81;5014983;28;20022;-63
2022/08/24 00:45:30;;;;;;;1.52;1.13;;;;;;;27.82;43.07;101436.91;4997739;28;20034;-63
2022/08/24 00:48:00;;;;;;;3.13;1.42;;;;;;;27.79;43.26;101434.63;5012726;28;20057;-63
2022/08/24 00:50:42;;;;;;;3.40;0.93;;;;;;;27.76;43.07;101433.16;5013602;28;20467;-64
2022/08/24 00:53:12;;;;;;;2.40;1.30;;;;;;;27.75;42.88;101436.97;5013687;28;20105;-63
2022/08/24 00:55:43;;;;;;;3.70;1.52;;;;;;;27.72;43.34;101435.53;5013400;28;20029;-63
2022/08/24 00:58:16;;;;;;;5.38;1.23;;;;;;;27.72;42.74;101442.97;5013518;28;20109;-63
2022/08/24 01:00:45;;;;;;;4.00;1.35;;;;;;;27.69;42.58;101433.22;5013494;28;20463;-63
2022/08/24 01:03:10;;;;;;;4.30;1.25;;;;;;;27.70;42.98;101442.31;5013640;28;20033;-63
2022/08/24 01:05:37;;;;;;;2.35;1.10;;;;;;;27.67;43.35;101434.53;5013315;28;20041;-63
2022/08/24 01:08:09;;;;;;;1.60;1.00;;;;;;;27.67;42.67;101435.38;5013178;28;20054;-63
2022/08/24 01:10:38;;;;;;;2.78;1.42;;;;;;;27.65;43.04;101443.03;5014479;28;20467;-63
2022/08/24 01:13:06;;;;;;;2.42;1.10;;;;;;;27.63;43.62;101433.31;5013339;28;20557;-63
2022/08/24 01:15:38;;;;;;;2.42;1.23;;;;;;;27.61;43.13;101429.94;5013186;28;20037;-63
2022/08/24 01:20:59;;;;;;;3.92;1.50;;;;;;;27.55;43.81;101436.34;5013294;28;20065;-63
2022/08/24 01:23:41;;;;;;;4.00;1.10;;;;;;;27.51;43.05;101438.69;5014050;28;20029;-63
2022/08/24 01:26:11;;;;;;;3.33;1.30;;;;;;;27.44;43.47;101431.56;5012938;28;20124;-63
2022/08/24 01:28:38;;;;;;;5.70;1.60;;;;;;;27.46;43.65;101437.69;5014204;28;20485;-63
2022/08/24 01:31:05;;;;;;;2.35;1.15;;;;;;;27.43;43.00;101427.13;5014124;28;20022;-63
2022/08/24 01:33:31;;;;;;;8.18;1.35;;;;;;;27.41;43.07;101434.78;5014153;28;20030;-63
2022/08/24 01:36:02;;;;;;;6.22;1.20;;;;;;;27.35;43.56;101427.38;5012810;28;20060;-63
2022/08/24 01:38:28;;;;;;;3.00;1.15;;;;;;;27.36;43.22;101434.59;5012773;28;20037;-63
2022/08/24 01:40:59;;;;;;;3.10;1.30;;;;;;;27.32;43.35;101430.56;4996296;28;20041;-63
2022/08/24 01:43:25;;;;;;;4.93;1.40;;;;;;;27.30;43.68;101438.22;5012717;28;20038;-63
2022/08/24 01:45:50;;;;;;;4.68;1.77;;;;;;;27.26;43.41;101437.81;4996271;28;20030;-63
2022/08/24 01:48:16;;;;;;;1.02;0.93;;;;;;;27.23;43.78;101440.16;5013872;28;20038;-63
2022/08/24 01:50:41;;;;;;;1.92;1.33;;;;;;;27.23;44.16;101440.16;4996219;28;20037;-64
2022/08/24 01:53:07;;;;;;;4.55;1.35;;;;;;;27.21;43.59;101440.41;5012530;28;20037;-63
2022/08/24 01:55:33;;;;;;;2.20;1.35;;;;;;;27.19;43.53;101446.13;5012573;28;20037;-63
2022/08/24 01:57:59;;;;;;;1.30;1.00;;;;;;;27.16;43.65;101446.56;5013597;28;20025;-63
2022/08/24 02:00:26;;;;;;;8.40;1.23;;;;;;;27.14;43.89;101448.69;5012236;28;20072;-63
2022/08/24 02:02:51;;;;;;;3.58;2.05;;;;;;;27.12;43.81;101438.97;5012836;28;20037;-63
2022/08/24 02:05:17;;;;;;;2.15;1.20;;;;;;;27.08;44.39;101444.09;5013795;28;20487;-63
2022/08/24 02:07:44;;;;;;;2.08;1.25;;;;;;;27.07;44.19;101452.56;5013408;28;20193;-63
2022/08/24 02:10:12;;;;;;;4.82;1.33;;;;;;;27.02;44.02;101434.00;4995995;28;20030;-63
2022/08/24 02:12:39;;;;;;;4.25;1.38;;;;;;;27.02;44.16;101447.75;5013485;28;20088;-63
2022/08/24 02:15:07;;;;;;;2.58;1.25;;;;;;;26.99;44.39;101447.34;5013828;28;20022;-63
2022/08/24 02:17:33;;;;;;;2.28;1.40;;;;;;;26.96;44.27;101442.28;5012319;28;20018;-63
2022/08/24 02:19:59;;;;;;;1.70;1.35;;;;;;;26.93;44.32;101446.31;5013310;28;20053;-63
2022/08/24 02:22:25;;;;;;;3.15;1.33;;;;;;;26.88;44.28;101432.41;5013404;28;20021;-63
2022/08/24 02:24:50;;;;;;;2.85;1.50;;;;;;;26.89;44.72;101445.06;4995733;28;20028;-63
2022/08/24 02:27:16;;;;;;;1.73;1.42;;;;;;;26.86;44.16;101437.25;5012239;28;20062;-63
2022/08/24 02:29:42;;;;;;;4.18;1.60;;;;;;;26.84;44.17;101444.88;5013383;28;20028;-63
2022/08/24 02:32:08;;;;;;;2.58;1.77;;;;;;;26.82;44.31;101455.28;5013344;28;20026;-63
2022/08/24 02:34:33;;;;;;;5.22;1.80;;;;;;;26.82;44.38;101452.53;5012014;28;20067;-63
2022/08/24 02:36:59;;;;;;;2.08;1.60;;;;;;;26.80;44.78;101449.13;5012152;28;20365;-63
2022/08/24 02:39:25;;;;;;;4.38;1.65;;;;;;;26.80;44.85;101448.31;5011852;28;20030;-63
2022/08/24 02:41:51;;;;;;;1.52;1.42;;;;;;;26.79;45.13;101449.38;5013397;28;20026;-63
2022/08/24 02:44:17;;;;;;;5.40;1.60;;;;;;;26.75;44.70;101446.16;5012101;28;20026;-63
2022/08/24 02:46:42;;;;;;;4.40;1.50;;;;;;;26.71;44.61;101441.34;5013335;28;20034;-63
2022/08/24 02:49:07;;;;;;;1.77;1.52;;;;;;;26.69;44.65;101449.78;5011990;28;20036;-63
2022/08/24 02:51:33;;;;;;;4.22;1.77;;;;;;;26.64;45.03;101452.38;5013295;28;20144;-63
2022/08/24 02:54:00;;;;;;;3.38;1.50;;;;;;;26.63;45.04;101447.94;5013232;28;20372;-63
2022/08/24 02:56:28;;;;;;;6.40;1.85;;;;;;;26.58;45.21;101445.00;5011911;28;20065;-63
2022/08/24 02:58:55;;;;;;;5.90;1.73;;;;;;;26.59;44.85;101455.78;5013098;28;20053;-63
2022/08/24 03:01:20;;;;;;;2.67;2.08;;;;;;;26.57;44.78;101448.81;5013039;28;20104;-63
2022/08/24 03:03:45;;;;;;;1.83;1.63;;;;;;;26.52;45.05;101454.13;5013003;28;20122;-63
2022/08/24 03:06:11;;;;;;;2.55;1.60;;;;;;;26.55;45.00;101456.41;5011766;28;20060;-63
2022/08/24 03:08:37;;;;;;;4.15;1.65;;;;;;;26.55;45.56;101461.91;5012989;28;20058;-63
2022/08/24 03:11:03;;;;;;;6.93;2.20;;;;;;;26.54;44.84;101457.50;5014308;28;20101;-63
2022/08/24 03:13:29;;;;;;;2.65;1.77;;;;;;;26.50;45.07;101453.50;4999087;28;20041;-63
2022/08/24 03:15:56;;;;;;;3.75;2.28;;;;;;;26.50;45.52;101453.50;5015068;28;20121;-63
2022/08/24 03:18:24;;;;;;;1.83;1.73;;;;;;;26.48;45.17;101455.63;5015162;28;20037;-63
2022/08/24 03:20:50;;;;;;;4.30;1.75;;;;;;;26.50;45.29;101458.97;4999328;28;20017;-63
2022/08/24 03:23:15;;;;;;;2.17;1.77;;;;;;;26.45;45.67;101456.91;5016528;28;20025;-63
2022/08/24 03:25:41;;;;;;;5.40;1.92;;;;;;;26.42;45.50;101454.59;5016432;28;20108;-63
2022/08/24 03:28:06;;;;;;;3.17;1.58;;;;;;;26.37;45.40;101453.56;5015185;28;20026;-64
2022/08/24 03:30:31;;;;;;;2.20;2.00;;;;;;;26.35;45.47;101461.19;5015104;28;20468;-63
2022/08/24 03:32:57;;;;;;;10.35;2.00;;;;;;;26.32;45.44;101456.13;5015159;28;20499;-63
2022/08/24 03:35:22;;;;;;;2.75;1.40;;;;;;;26.28;45.60;101454.84;5016254;28;20037;-63
2022/08/24 03:37:49;;;;;;;8.48;1.90;;;;;;;26.24;45.33;101448.97;5016365;28;20087;-63
2022/08/24 03:40:15;;;;;;;2.25;1.48;;;;;;;26.22;45.81;101459.31;5016278;28;20026;-63
2022/08/24 03:42:40;;;;;;;3.22;2.50;;;;;;;26.20;45.37;101447.69;5016176;28;20037;-63
2022/08/24 03:45:07;;;;;;;4.00;1.90;;;;;;;26.17;45.85;101448.13;5016189;28;20036;-63
2022/08/24 03:47:32;;;;;;;6.00;2.15;;;;;;;26.15;46.09;101449.41;5014873;28;20119;-63
2022/08/24 03:49:58;;;;;;;4.43;2.30;;;;;;;26.16;45.63;101451.09;5015940;28;20049;-63
2022/08/24 03:52:23;;;;;;;4.22;1.80;;;;;;;26.14;45.88;101447.72;5016122;28;20044;-64
2022/08/24 03:54:49;;;;;;;5.47;2.30;;;;;;;26.12;45.81;101449.81;4996409;28;20133;-63
2022/08/24 03:57:14;;;;;;;3.33;2.08;;;;;;;26.11;46.30;101451.69;5015290;28;20058;-63
2022/08/24 03:59:40;;;;;;;1.75;1.60;;;;;;;26.07;45.89;101441.38;5014609;28;20030;-63
2022/08/24 04:02:05;;;;;;;4.80;2.40;;;;;;;26.08;45.66;101454.03;5015975;28;20475;-63
2022/08/24 04:04:31;;;;;;;2.28;1.90;;;;;;;26.08;46.11;101448.53;5014618;28;20384;-63
2022/08/24 04:06:57;;;;;;;2.03;1.85;;;;;;;26.05;46.08;101439.66;5014411;28;20128;-63
2022/08/24 04:09:23;;;;;;;1.83;1.63;;;;;;;26.06;46.20;101446.00;5014316;28;20034;-63
2022/08/24 04:11:49;;;;;;;3.95;2.05;;;;;;;26.03;46.03;101450.03;5015604;28;20034;-63
2022/08/24 04:14:15;;;;;;;2.58;2.28;;;;;;;26.00;46.13;101441.38;5014653;28;20112;-63
2022/08/24 04:16:40;;;;;;;2.03;1.77;;;;;;;25.98;45.83;101444.34;5015532;28;20113;-63
2022/08/24 04:19:06;;;;;;;3.30;2.00;;;;;;;25.96;45.83;101446.44;5015622;28;20038;-63
2022/08/24 04:21:33;;;;;;;3.63;2.10;;;;;;;25.94;45.71;101456.81;5014010;28;20030;-63
2022/08/24 04:23:59;;;;;;;2.85;2.13;;;;;;;25.92;46.03;101450.69;5013995;28;20083;-63
2022/08/24 04:26:27;;;;;;;4.75;2.10;;;;;;;25.91;45.87;101446.25;5014107;28;20026;-63
2022/08/24 04:28:54;;;;;;;2.50;1.80;;;;;;;25.92;46.42;101456.19;5014102;28;20084;-63
2022/08/24 04:31:19;;;;;;;2.40;1.80;;;;;;;25.92;45.99;101464.44;5015332;28;20468;-63
2022/08/24 04:33:46;;;;;;;2.92;2.03;;;;;;;25.89;46.18;101456.63;5015117;28;20088;-63
2022/08/24 04:36:12;;;;;;;2.17;1.85;;;;;;;25.91;46.46;101467.38;5015137;28;20042;-63
2022/08/24 04:38:38;;;;;;;4.15;2.22;;;;;;;25.90;46.49;101468.44;5013837;28;20100;-63
2022/08/24 04:41:05;;;;;;;2.58;1.85;;;;;;;25.84;46.46;101459.16;5013810;28;20030;-63
2022/08/24 04:43:31;;;;;;;2.70;2.25;;;;;;;25.88;46.18;101460.41;5015289;28;20028;-63
2022/08/24 04:45:56;;;;;;;2.88;1.98;;;;;;;25.88;46.11;101465.91;5013765;28;20025;-63
2022/08/24 04:48:22;;;;;;;3.15;1.65;;;;;;;25.88;46.20;101468.66;5013728;28;20029;-63
2022/08/24 04:50:48;;;;;;;4.80;2.60;;;;;;;25.90;46.45;101474.78;5014919;28;20030;-63
2022/08/24 04:53:14;;;;;;;3.83;1.83;;;;;;;25.90;46.60;101473.94;5015134;28;20512;-63
2022/08/24 04:55:43;;;;;;;3.95;2.22;;;;;;;25.88;46.68;101474.13;5013607;28;20053;-63
2022/08/24 04:58:08;;;;;;;3.03;2.22;;;;;;;25.88;46.66;101482.38;5014713;28;20105;-63
2022/08/24 05:00:34;;;;;;;4.50;2.40;;;;;;;25.88;46.26;101482.38;5013355;28;20128;-63
2022/08/24 05:02:59;;;;;;;14.23;3.25;;;;;;;25.88;46.59;101481.56;5015102;28;20026;-63
2022/08/24 05:05:24;;;;;;;9.10;2.67;;;;;;;25.89;46.49;101489.56;5014716;28;20041;-63
2022/08/24 05:07:50;;;;;;;7.25;2.53;;;;;;;25.90;46.28;101488.50;5014485;28;20057;-63
2022/08/24 05:10:15;;;;;;;6.93;2.60;;;;;;;25.94;46.79;101489.75;5014528;28;20033;-63
2022/08/24 05:12:42;;;;;;;6.70;2.40;;;;;;;25.99;46.80;101495.44;5014479;28;20034;-63
2022/08/24 05:15:08;;;;;;;5.78;2.28;;;;;;;26.05;46.75;101488.25;5014499;28;20483;-63
2022/08/24 05:17:34;;;;;;;7.57;2.30;;;;;;;26.13;46.58;101495.44;5014374;28;20041;-63
2022/08/24 05:19:59;;;;;;;9.30;2.20;;;;;;;26.18;46.71;101499.28;5014359;28;20026;-63
2022/08/24 05:22:24;;;;;;;6.38;1.77;;;;;;;26.25;46.75;101497.34;5014420;28;20037;-63
2022/08/24 05:24:50;;;;;;;4.45;2.30;;;;;;;26.31;46.27;101499.22;5014225;28;20056;-63
2022/08/24 05:27:17;;;;;;;5.63;2.85;;;;;;;26.43;46.67;101505.75;5014534;28;20395;-63
2022/08/24 05:29:43;;;;;;;6.85;2.47;;;;;;;26.52;46.12;101506.34;5014080;28;20036;-63
2022/08/24 05:32:08;;;;;;;3.45;2.28;;;;;;;26.63;46.16;101496.56;5012913;28;20119;-63
2022/08/24 05:34:35;;;;;;;4.78;2.08;;;;;;;26.71;46.33;101505.44;5013471;28;20053;-62
2022/08/24 05:37:00;;;;;;;4.70;2.25;;;;;;;26.80;46.50;101506.06;5012890;28;20395;-63
2022/08/24 05:39:26;;;;;;;4.47;2.17;;;;;;;26.93;46.58;101497.72;4996711;28;20026;-62
2022/08/24 05:41:51;;;;;;;5.20;2.28;;;;;;;27.05;46.04;101501.47;5013989;28;20032;-64
2022/08/24 05:44:17;;;;;;;5.20;2.20;;;;;;;27.18;46.68;101501.38;5013981;28;20507;-62
2022/08/24 05:46:43;;;;;;;7.90;2.70;;;;;;;27.32;46.24;101504.88;5013883;28;20037;-62
2022/08/24 05:49:09;;;;;;;3.03;2.22;;;;;;;27.46;46.28;101498.25;5013926;28;20033;-62
2022/08/24 05:51:35;;;;;;;5.13;2.92;;;;;;;27.60;46.30;101500.69;5013868;28;20038;-62
2022/08/24 05:54:03;;;;;;;10.95;2.78;;;;;;;27.77;46.10;101502.84;5012635;28;20025;-63
2022/08/24 05:56:29;;;;;;;3.60;2.53;;;;;;;27.94;45.80;101501.22;5012602;28;20017;-62
2022/08/24 05:58:54;;;;;;;7.45;3.28;;;;;;;28.11;46.18;101500.41;5012592;28;20464;-62
2022/08/24 06:01:22;;;;;;;9.25;3.38;;;;;;;28.30;45.86;101496.63;5013502;28;20040;-62
2022/08/24 06:03:49;;;;;;;3.20;2.10;;;;;;;28.48;45.61;101504.03;5013600;28;20036;-62
2022/08/24 06:06:15;;;;;;;8.25;2.13;;;;;;;28.69;45.44;101491.72;5012192;28;20053;-62
2022/08/24 06:08:44;;;;;;;6.03;2.88;;;;;;;28.88;45.51;101499.75;5013633;28;20033;-62
2022/08/24 06:11:10;;;;;;;5.63;3.00;;;;;;;29.05;44.74;101488.88;5012630;28;20018;-62
2022/08/24 06:13:35;;;;;;;6.15;2.80;;;;;;;29.26;44.40;101502.19;5012387;28;20080;-62
2022/08/24 06:16:10;;;;;;;15.70;3.60;;;;;;;29.45;44.80;101503.78;5013608;28;20063;-62
2022/08/24 06:18:35;;;;;;;8.18;3.88;;;;;;;29.60;44.28;101503.34;5013550;28;20053;-62
2022/08/24 06:21:05;;;;;;;14.27;4.50;;;;;;;29.75;43.81;101502.88;5013369;28;20416;-62
2022/08/24 06:23:31;;;;;;;6.80;4.00;;;;;;;29.88;44.08;101498.00;5013275;28;20091;-63
2022/08/24 06:28:41;;;;;;;8.45;3.42;;;;;;;30.19;43.17;101491.25;5012419;28;20041;-62
2022/08/24 06:31:06;;;;;;;5.13;3.88;;;;;;;30.35;43.24;101501.53;5013290;28;20026;-62
2022/08/24 06:33:32;;;;;;;9.40;5.90;;;;;;;30.50;43.39;101499.16;5013369;28;20080;-62
2022/08/24 06:35:58;;;;;;;13.73;6.40;;;;;;;30.67;42.84;101506.69;5013520;28;20033;-63
2022/08/24 06:38:23;;;;;;;14.05;7.30;;;;;;;30.81;43.07;101497.88;5012212;28;20034;-63
2022/08/24 06:40:49;;;;;;;12.85;7.60;;;;;;;30.97;42.71;101494.34;5013201;28;20026;-62
2022/08/24 06:43:14;;;;;;;9.90;6.90;;;;;;;31.09;42.51;101485.97;5013254;28;20422;-62
2022/08/24 06:45:40;;;;;;;14.18;7.15;;;;;;;31.30;42.45;101501.84;5013937;28;20025;-63
2022/08/24 06:48:06;;;;;;;11.73;7.40;;;;;;;31.47;42.24;101505.53;5017119;28;20038;-62
2022/08/24 06:50:31;;;;;;;10.80;7.15;;;;;;;31.64;41.79;101495.28;5017195;28;20026;-63
2022/08/24 06:52:59;;;;;;;11.82;7.93;;;;;;;31.78;41.93;101493.00;5017028;28;20376;-63
2022/08/24 06:55:24;;;;;;;18.30;8.85;;;;;;;32.02;41.63;101496.47;5017242;28;20443;-62
2022/08/24 06:57:50;;;;;;;8.80;6.30;;;;;;;32.18;41.80;101492.81;5017063;28;20117;-62
2022/08/24 07:00:16;;;;;;;11.90;6.18;;;;;;;32.36;41.18;101492.50;5016922;28;20511;-63
2022/08/24 07:02:41;;;;;;;8.50;5.93;;;;;;;32.51;40.61;101487.16;5017143;28;20067;-63
2022/08/24 07:05:07;;;;;;;11.32;7.35;;;;;;;32.72;41.20;101496.63;5016827;28;20029;-63
2022/08/24 07:07:32;;;;;;;15.38;8.43;;;;;;;32.89;41.06;101491.81;5016499;28;20054;-62
2022/08/24 07:09:59;;;;;;;9.60;6.82;;;;;;;33.11;39.89;101500.16;5016989;28;20028;-63
2022/08/24 07:12:25;;;;;;;11.57;7.75;;;;;;;33.30;40.59;101509.78;5015572;28;20080;-63
2022/08/24 07:14:51;;;;;;;13.50;8.30;;;;;;;33.47;39.57;101506.88;5016677;28;20030;-63
2022/08/24 07:17:17;;;;;;;15.00;8.20;;;;;;;33.61;39.45;101516.50;5015296;28;20040;-63
2022/08/24 07:19:44;;;;;;;16.20;8.57;;;;;;;33.75;39.10;101512.16;5016637;28;20103;-63
2022/08/24 07:22:11;;;;;;;13.80;8.60;;;;;;;33.92;39.36;101508.09;5016467;28;20092;-63
2022/08/24 07:24:36;;;;;;;15.85;10.40;;;;;;;34.12;38.38;101514.94;5016578;28;20049;-63
2022/08/24 07:27:02;;;;;;;14.30;8.38;;;;;;;34.32;38.15;101517.84;5016391;28;20080;-63
2022/08/24 07:29:27;;;;;;;18.40;8.70;;;;;;;34.52;38.38;101520.75;5016497;28;20437;-63
2022/08/24 07:31:53;;;;;;;12.18;8.38;;;;;;;34.69;39.03;101518.63;5016487;28;20391;-63
2022/08/24 07:34:18;;;;;;;12.32;8.40;;;;;;;34.90;38.37;101525.09;5016355;28;20053;-63
2022/08/24 07:36:43;;;;;;;13.27;7.75;;;;;;;35.11;37.96;101520.44;5016615;28;20045;-63
2022/08/24 07:39:09;;;;;;;14.00;7.60;;;;;;;35.31;37.80;101521.34;5014789;28;20041;-63
2022/08/24 07:41:40;;;;;;;10.10;6.78;;;;;;;35.51;37.24;101514.94;5016175;28;20452;-63
2022/08/24 07:44:05;;;;;;;9.65;6.43;;;;;;;35.71;37.16;101517.75;5014876;28;20518;-63
2022/08/24 07:46:31;;;;;;;11.95;7.28;;;;;;;35.91;36.64;101519.69;5016328;28;20061;-63
2022/08/24 07:48:56;;;;;;;8.52;5.97;;;;;;;36.06;36.63;101522.50;5016226;28;20479;-64
2022/08/24 07:51:22;;;;;;;11.45;6.55;;;;;;;36.22;36.30;101513.81;5015973;28;20105;-63
2022/08/24 07:53:47;;;;;;;12.55;6.85;;;;;;;36.38;35.98;101519.34;5016113;28;20037;-63
2022/08/24 07:56:13;;;;;;;9.45;6.38;;;;;;;36.51;35.82;101521.56;5014228;28;20184;-63
2022/08/24 07:58:38;;;;;;;8.25;5.38;;;;;;;36.68;35.50;101527.66;5015818;28;20400;-63
2022/08/24 08:01:05;;;;;;;12.02;7.35;;;;;;;36.85;35.05;101527.28;5014574;28;20037;-63
2022/08/24 08:03:32;;;;;;;9.85;6.13;;;;;;;36.96;35.17;101532.56;5014764;28;20053;-63
2022/08/24 08:06:00;;;;;;;4.90;3.92;;;;;;;37.12;34.70;101536.94;5015786;28;20030;-63
2022/08/24 08:08:26;;;;;;;7.90;4.68;;;;;;;37.24;34.51;101528.22;5014504;28;20430;-63
2022/08/24 08:10:51;;;;;;;7.93;4.70;;;;;;;37.42;34.32;101535.94;5014439;28;20084;-63
2022/08/24 08:13:17;;;;;;;7.88;4.63;;;;;;;37.67;33.48;101538.53;5015539;28;20033;-63
2022/08/24 08:15:43;;;;;;;9.90;4.63;;;;;;;37.86;34.23;101530.22;5015545;28;20036;-63
2022/08/24 08:18:08;;;;;;;10.43;5.40;;;;;;;38.01;33.30;101534.88;5015459;28;20030;-63
2022/08/24 08:20:36;;;;;;;9.25;5.32;;;;;;;38.14;33.52;101537.00;5014174;28;20033;-63
2022/08/24 08:25:51;;;;;;;11.75;5.70;;;;;;;38.40;32.85;101536.47;5015283;28;20113;-63
2022/08/24 08:28:17;;;;;;;9.77;6.80;;;;;;;38.55;32.47;101551.41;5014322;28;20036;-63
2022/08/24 08:30:43;;;;;;;10.63;5.43;;;;;;;38.65;32.63;101543.72;5014104;28;20022;-63
2022/08/24 08:33:09;;;;;;;14.10;4.80;;;;;;;38.82;32.97;101551.66;5015226;28;20037;-63
2022/08/24 08:35:36;;;;;;;7.10;5.68;;;;;;;39.01;32.34;101547.75;5015180;28;20419;-63
2022/08/24 08:38:02;;;;;;;9.18;5.28;;;;;;;39.19;31.94;101553.69;5015461;28;20476;-63
2022/08/24 08:40:40;;;;;;;11.23;5.00;;;;;;;39.36;31.08;101549.25;5013812;28;20026;-63
2022/08/24 08:43:09;;;;;;;6.07;3.92;;;;;;;39.09;31.56;101546.22;5015026;28;20026;-63
2022/08/24 08:46:07;;;;;;;8.75;4.43;;;;;;;38.85;32.38;101548.25;5013978;28;20534;-63
2022/08/24 08:49:02;;;;;;;9.75;4.00;;;;;;;38.64;31.66;101552.44;5014915;28;20148;-63
2022/08/24 08:51:47;;;;;;;7.43;3.75;;;;;;;38.88;30.93;101542.06;4997257;28;20030;-63
2022/08/24 08:54:27;;;;;;;6.18;4.05;;;;;;;39.09;31.47;101553.84;5014785;28;20522;-63
2022/08/24 08:57:14;;;;;;;6.60;4.07;;;;;;;39.28;30.67;101541.50;5014840;28;20026;-63
2022/08/24 08:59:58;;;;;;;7.95;5.28;;;;;;;39.42;30.15;101552.81;5014956;28;20476;-63
2022/08/24 09:02:37;;;;;;;7.63;4.47;;;;;;;39.51;30.49;101545.34;5014953;28;20136;-63
2022/08/24 09:05:47;;;;;;;9.05;5.55;;;;;;;39.70;30.91;101543.38;5013524;28;20017;-63
2022/08/24 09:08:40;;;;;;;11.73;5.50;;;;;;;39.91;29.74;101546.66;5013525;28;20108;-63
2022/08/24 09:11:24;;;;;;;11.07;4.55;;;;;;;40.11;29.47;101537.91;5014543;28;20049;-64
2022/08/24 09:14:14;;;;;;;10.13;4.85;;;;;;;40.32;29.51;101533.53;5014784;28;20057;-64
2022/08/24 09:16:53;;;;;;;11.15;4.70;;;;;;;40.36;29.98;101534.59;5014547;28;20037;-63
2022/08/24 09:19:45;;;;;;;6.35;4.80;;;;;;;40.39;30.09;101539.59;5013296;28;20399;-64
2022/08/24 09:22:14;;;;;;;7.75;5.25;;;;;;;40.25;29.88;101535.94;5013112;28;20054;-63
2022/08/24 09:24:54;;;;;;;11.27;4.53;;;;;;;40.09;29.50;101540.19;5014096;28;20037;-63
2022/08/24 09:27:31;;;;;;;10.35;4.85;;;;;;;40.05;29.39;101537.13;5013181;28;20026;-63
2022/08/24 09:30:18;;;;;;;8.43;4.03;;;;;;;39.96;30.33;101532.53;5014456;28;20025;-63
2022/08/24 09:33:03;;;;;;;10.20;4.22;;;;;;;40.02;30.31;101539.72;5014099;28;20033;-63
2022/08/24 09:35:43;;;;;;;10.75;4.40;;;;;;;40.30;29.73;101530.22;5014098;28;20076;-63
2022/08/24 09:38:39;;;;;;;6.05;4.15;;;;;;;40.35;29.13;101527.31;5012767;28;20032;-64
2022/08/24 09:41:43;;;;;;;10.10;4.32;;;;;;;40.39;29.15;101533.16;5013886;28;20510;-63
2022/08/24 09:44:36;;;;;;;7.68;3.83;;;;;;;40.11;29.20;101535.09;5013811;28;20026;-63
2022/08/24 09:47:58;;;;;;;8.90;3.38;;;;;;;40.72;29.37;101531.06;5014168;28;20026;-63
2022/08/24 09:51:00;;;;;;;7.15;3.95;;;;;;;41.16;28.93;101532.06;4992324;28;20026;-63
2022/08/24 09:53:43;;;;;;;7.88;3.22;;;;;;;41.67;28.38;101526.06;4992141;28;20066;-64
2022/08/24 09:56:32;;;;;;;4.15;3.40;;;;;;;42.28;27.79;101524.47;4992017;28;20035;-64
2022/08/24 09:59:00;;;;;;;6.05;2.58;;;;;;;42.72;27.26;101524.31;4975782;28;20028;-64
2022/08/24 10:01:34;;;;;;;8.43;3.15;;;;;;;43.09;26.98;101533.34;4991801;28;20170;-64
2022/08/24 10:04:07;;;;;;;4.05;2.53;;;;;;;43.69;25.83;101528.56;4991963;28;20069;-63
2022/08/24 10:07:16;;;;;;;2.33;1.40;;;;;;;43.55;25.82;101530.75;4991797;28;20424;-63
2022/08/24 10:10:03;;;;;;;2.70;2.20;;;;;;;43.43;25.79;101527.75;4979388;28;20395;-64
2022/08/24 10:12:53;;;;;;;5.60;2.20;;;;;;;43.57;26.20;101514.28;4991918;28;20030;-63
2022/08/24 10:15:31;;;;;;;8.90;2.35;;;;;;;43.78;25.50;101517.28;4991718;28;20532;-64
2022/08/24 10:18:05;;;;;;;6.40;2.00;;;;;;;44.08;25.31;101506.88;4991837;28;20031;-64
2022/08/24 10:20:40;;;;;;;5.63;2.20;;;;;;;44.41;24.99;101517.22;4999158;28;20038;-64
2022/08/24 10:23:59;;;;;;;5.28;2.05;;;;;;;44.71;24.38;101498.28;5013398;28;20018;-64
2022/08/24 10:26:55;;;;;;;4.95;1.77;;;;;;;45.03;24.33;101496.75;4991734;28;20034;-64
2022/08/24 10:29:54;;;;;;;10.27;1.80;;;;;;;45.27;23.69;101491.25;4991730;28;20153;-64
2022/08/24 10:32:47;;;;;;;6.65;1.60;;;;;;;45.58;23.65;101493.59;4991730;28;20026;-64
2022/08/24 10:35:16;;;;;;;2.95;1.42;;;;;;;45.77;23.48;101493.09;4991643;28;20034;-64
2022/08/24 10:41:25;;;;;;;3.40;1.73;;;;;;;44.12;23.99;101490.88;4991513;28;20046;-64
2022/08/24 10:43:59;;;;;;;4.00;1.20;;;;;;;44.87;23.33;101482.34;4940686;28;20043;-64
2022/08/24 10:46:35;;;;;;;4.00;1.27;;;;;;;45.31;22.82;101491.38;4991520;28;20040;-64
2022/08/24 10:49:03;;;;;;;4.93;1.38;;;;;;;45.71;22.80;101486.00;4991609;28;20030;-64
2022/08/24 10:51:59;;;;;;;6.15;1.10;;;;;;;46.06;22.46;101484.44;4991601;28;20040;-64
2022/08/24 10:54:24;;;;;;;1.55;1.08;;;;;;;46.40;22.28;101474.69;4991481;28;20049;-64
2022/08/24 10:57:14;;;;;;;6.20;1.00;;;;;;;46.69;21.72;101477.22;4991534;28;20512;-64
2022/08/24 10:59:43;;;;;;;1.48;0.80;;;;;;;46.90;21.45;101469.41;4995446;28;20042;-64
2022/08/24 11:02:25;;;;;;;4.22;1.17;;;;;;;46.98;21.51;101476.97;5011915;28;20173;-64
2022/08/24 11:04:54;;;;;;;;;;;;;;;47.21;22.03;101474.44;5012350;28;20065;-64
2022/08/24 11:07:21;;;;;;;2.10;1.38;;;;;;;47.28;21.39;101466.94;5011687;28;20359;-64
2022/08/24 11:09:50;;;;;;;2.28;1.00;;;;;;;47.28;21.44;101468.94;5012943;28;20144;-64
2022/08/24 11:12:25;;;;;;;1.63;1.13;;;;;;;47.40;20.83;101453.88;5013042;28;20030;-64
2022/08/24 11:14:51;;;;;;;1.73;1.20;;;;;;;47.53;20.92;101459.13;5013039;28;20022;-64
2022/08/24 11:17:20;;;;;;;2.58;0.98;;;;;;;47.71;20.41;101457.63;5013223;28;20487;-64
2022/08/24 11:19:46;;;;;;;2.50;0.95;;;;;;;47.84;20.77;101452.69;5011714;28;20029;-66
2022/08/24 11:22:33;;;;;;;1.80;0.90;;;;;;;48.03;20.12;101449.09;5012260;28;20030;-64
2022/08/24 11:25:24;;;;;;;2.88;1.00;;;;;;;48.05;20.20;101449.59;5012809;28;20033;-64
2022/08/24 11:27:52;;;;;;;2.95;0.98;;;;;;;48.11;20.51;101456.66;5013133;28;20026;-64
2022/08/24 11:30:17;;;;;;;2.60;0.80;;;;;;;48.20;20.29;101451.59;5011681;28;20369;-65
2022/08/24 11:32:46;;;;;;;3.30;1.10;;;;;;;48.30;20.21;101453.91;5014940;28;20029;-64
2022/08/24 11:35:22;;;;;;;2.58;0.90;;;;;;;48.43;19.97;101453.41;5016324;28;20263;-64
2022/08/24 11:37:50;;;;;;;4.57;1.25;;;;;;;48.54;20.07;101444.28;5015321;28;20092;-64
2022/08/24 11:40:18;;;;;;;3.47;0.68;;;;;;;48.53;19.85;101448.34;5015175;28;20026;-64
2022/08/24 11:43:06;;;;;;;2.17;1.15;;;;;;;48.58;19.59;101442.38;5016166;28;20037;-64
2022/08/24 11:45:44;;;;;;;4.68;1.23;;;;;;;48.67;19.67;101428.75;5014860;28;20076;-64
2022/08/24 11:48:18;;;;;;;1.80;0.73;;;;;;;48.75;19.41;101424.91;5015045;28;20476;-64
2022/08/24 11:51:11;;;;;;;3.10;0.90;;;;;;;48.84;19.49;101423.47;5014895;28;20084;-64